Weybourne, United Kingdom
Current Conditions -  °F | °C
As of 3:20 PM on Thursday 30 Oct 2014 (Local Time) from EGSH Reporting Station
Few Clouds Few Clouds  
Wind Chill: 63°   Ceiling: Unl
Heat Index: 63°   Visibility: 4mi
Dew Point: 59°   Wind: 7mph
Humidity: 88%   Direction: 180°S
Pressure: 30.06"   Gusts: NA
Location:  52.94°N, 1.14°E
Report Text: EGSH 301520Z 18006KT 140V220 6000 FEW036 17/15 Q1018 NOSIG
Loading
Personal Weather Stations






























Interactive Weather Map
Tropical Storm Tracking
New forecast layout! Learn more

10-Day Weather Forecast

Advertisements
Track Severe Weather on mobile